PWSweather.com
Personal Weather Stations
Station Observations
BLACKWELL
Blackwell, AlfretonGB DE55

BlackwellAlfretonGB DE55

Lat: 53.12076, Lon: -1.354978

Elevation: 410

Station Type: Vantage Pro

High Low Average
Temperature 70.5°F21.4°F 56.8°F13.8°F 63.3°F17.4°F
Dew Point 60.1°F15.6°F 52.7°F11.5°F 56.3°F13.5°F
Winds 2.0 mph -3.2 mph - Calm Calm 1.0 mph 1.6 mph
Wind Gusts 9.0 mph14.5 mph 1.0 mph1.6 mph 5.1 mph8.2 mph
Humidity 92% 60% 79%
Pressure 30.03 in1016.90 in 29.92 in1013.20 in -
Precipitation 0.00 in0.00 in - -
Hour Temp Dew Point Humidity Winds Wind Gusts Pressure Precip Precip Rate Daily Precip Total
12:02 AM 59.4°F15.2°C 56.3°F13.5°C 90% 1.0 mph SSW1.6 kmh SSW 4.0 mph6.4 kmh 29.92 in1013.2 mb 0.00 in0.0 mm 0.00 in0.0 mm 0.00 in0.0 mm
01:02 AM 58.6°F14.8°C 55.8°F13.2°C 90% Calm Calm 4.0 mph6.4 kmh 29.93 in1013.5 mb 0.00 in0.0 mm 0.00 in0.0 mm 0.00 in0.0 mm
02:02 AM 58.3°F14.6°C 55.8°F13.2°C 91% Calm Calm 1.0 mph1.6 kmh 29.92 in1013.2 mb 0.00 in0.0 mm 0.00 in0.0 mm 0.00 in0.0 mm
03:02 AM 58.8°F14.9°C 55.9°F13.3°C 90% Calm Calm 2.0 mph3.2 kmh 29.93 in1013.5 mb 0.00 in0.0 mm 0.00 in0.0 mm 0.00 in0.0 mm
04:02 AM 58.5°F14.7°C 55.9°F13.3°C 91% Calm Calm 2.0 mph3.2 kmh 29.94 in1013.9 mb 0.00 in0.0 mm 0.00 in0.0 mm 0.00 in0.0 mm
05:02 AM 58.1°F14.5°C 55.8°F13.2°C 92% Calm Calm 3.0 mph4.8 kmh 29.94 in1013.9 mb 0.00 in0.0 mm 0.00 in0.0 mm 0.00 in0.0 mm
06:02 AM 56.8°F13.8°C 54.1°F12.3°C 91% Calm Calm 3.0 mph4.8 kmh 29.96 in1014.6 mb 0.00 in0.0 mm 0.00 in0.0 mm 0.00 in0.0 mm
07:02 AM 58.8°F14.9°C 54.3°F12.4°C 85% Calm Calm 4.0 mph6.4 kmh 29.98 in1015.2 mb 0.00 in0.0 mm 0.00 in0.0 mm 0.00 in0.0 mm
08:02 AM 60.6°F15.9°C 53.8°F12.1°C 78% 1.0 mph S1.6 kmh S 6.0 mph9.7 kmh 30.00 in1015.9 mb 0.00 in0.0 mm 0.00 in0.0 mm 0.00 in0.0 mm
09:02 AM 61.0°F16.1°C 52.9°F11.6°C 75% 1.0 mph S1.6 kmh S 6.0 mph9.7 kmh 30.00 in1015.9 mb 0.00 in0.0 mm 0.00 in0.0 mm 0.00 in0.0 mm
10:02 AM 65.1°F18.4°C 52.7°F11.5°C 64% 2.0 mph S3.2 kmh S 7.0 mph11.3 kmh 30.00 in1015.9 mb 0.00 in0.0 mm 0.00 in0.0 mm 0.00 in0.0 mm
11:02 AM 66.9°F19.4°C 53.1°F11.7°C 61% 2.0 mph S3.2 kmh S 7.0 mph11.3 kmh 30.00 in1015.9 mb 0.00 in0.0 mm 0.00 in0.0 mm 0.00 in0.0 mm
12:02 PM 68.9°F20.5°C 54.9°F12.7°C 61% 2.0 mph S3.2 kmh S 6.0 mph9.7 kmh 30.00 in1015.9 mb 0.00 in0.0 mm 0.00 in0.0 mm 0.00 in0.0 mm
01:02 PM 68.0°F20.0°C 54.5°F12.5°C 62% 2.0 mph S3.2 kmh S 7.0 mph11.3 kmh 30.01 in1016.3 mb 0.00 in0.0 mm 0.00 in0.0 mm 0.00 in0.0 mm
02:02 PM 70.0°F21.1°C 55.4°F13.0°C 60% 2.0 mph SSW3.2 kmh SSW 7.0 mph11.3 kmh 30.00 in1015.9 mb 0.00 in0.0 mm 0.00 in0.0 mm 0.00 in0.0 mm
03:02 PM 70.5°F21.4°C 58.3°F14.6°C 65% 2.0 mph S3.2 kmh S 8.0 mph12.9 kmh 29.99 in1015.6 mb 0.00 in0.0 mm 0.00 in0.0 mm 0.00 in0.0 mm
04:02 PM 67.8°F19.9°C 57.2°F14.0°C 69% 2.0 mph SSW3.2 kmh SSW 9.0 mph14.5 kmh 29.99 in1015.6 mb 0.00 in0.0 mm 0.00 in0.0 mm 0.00 in0.0 mm
05:02 PM 66.6°F19.2°C 58.1°F14.5°C 74% 1.0 mph SSW1.6 kmh SSW 6.0 mph9.7 kmh 30.00 in1015.9 mb 0.00 in0.0 mm 0.00 in0.0 mm 0.00 in0.0 mm
06:02 PM 66.6°F19.2°C 58.6°F14.8°C 76% 1.0 mph SSW1.6 kmh SSW 4.0 mph6.4 kmh 29.99 in1015.6 mb 0.00 in0.0 mm 0.00 in0.0 mm 0.00 in0.0 mm
07:02 PM 65.3°F18.5°C 59.0°F15.0°C 80% 1.0 mph SSW1.6 kmh SSW 5.0 mph8.0 kmh 30.00 in1015.9 mb 0.00 in0.0 mm 0.00 in0.0 mm 0.00 in0.0 mm
08:02 PM 64.0°F17.8°C 59.7°F15.4°C 86% 1.0 mph S1.6 kmh S 6.0 mph9.7 kmh 30.00 in1015.9 mb 0.00 in0.0 mm 0.00 in0.0 mm 0.00 in0.0 mm
09:02 PM 63.0°F17.2°C 60.1°F15.6°C 90% 1.0 mph S1.6 kmh S 7.0 mph11.3 kmh 30.01 in1016.3 mb 0.00 in0.0 mm 0.00 in0.0 mm 0.00 in0.0 mm
10:02 PM 63.1°F17.3°C 59.9°F15.5°C 89% 1.0 mph S1.6 kmh S 4.0 mph6.4 kmh 30.02 in1016.6 mb 0.00 in0.0 mm 0.00 in0.0 mm 0.00 in0.0 mm
11:02 PM 63.3°F17.4°C 59.0°F15.0°C 86% 1.0 mph SSW1.6 kmh SSW 4.0 mph6.4 kmh 30.03 in1016.9 mb 0.00 in0.0 mm 0.00 in0.0 mm 0.00 in0.0 mm